»·PEaware :: N121AW KSMX-KBFL

N121AW :: KSMX-KBFL

FLIGHT INFORMATION

Flight Status: Arrived
Operator: Privately registered:
United States
More flights under this callsign
Pilot: Anders Furseth (8068)
Aircraft: Unknown
(PIPA)
More flights by this aircraft type
Origin: KSMX Santa Maria Pub/Capt Hancock
United States
Destination: KBFL Meadows
United States
More flights between these airports :: More routes between these airports
Route: +
File this flight plan on PilotEdge
Remarks: CAT5
Altitude:
(Current/Filed)
6,500ft
Speed:
(Current/Filed)
185kts
Departed: 13-Jun-17 02:35 PM
Arrived: 13-Jun-17 03:08 PM
Distance/Time
Traveled:
76nm/0:33
Distance/Time
To Go:
Arrived

Flight Plot

Page will automatically refresh every two minutes.


Map Options




Map Legend


Flown Route
Filed Route
Departure Airport
Arrival Airport
Navaid (VOR, NDB)
Fix

Horizontal Profiles

Position Reports

Time Latitude Longitude Heading Altitude Ground
Speed
13-Jun-17 14:30 34.898899 -120.450009 185 264ft 14kts
13-Jun-17 14:31 34.896542 -120.447782 135 264ft 16kts
13-Jun-17 14:32 34.893877 -120.444960 183 264ft 12kts
13-Jun-17 14:33 34.893187 -120.444941 182 264ft 0kts
13-Jun-17 14:34 34.893187 -120.444941 182 264ft 0kts
13-Jun-17 14:35 34.893187 -120.444941 182 264ft 0kts
13-Jun-17 14:36 34.892784 -120.445760 313 264ft 0kts
13-Jun-17 14:37 34.903992 -120.459240 308 848ft 92kts
13-Jun-17 14:38 34.932040 -120.469474 345 2600ft 113kts
13-Jun-17 14:39 34.962705 -120.452711 28 4292ft 129kts
13-Jun-17 14:40 34.991391 -120.431408 15 6022ft 116kts
13-Jun-17 14:41 35.015658 -120.404129 61 7246ft 153kts
13-Jun-17 14:42 35.027261 -120.354800 67 8522ft 151kts
13-Jun-17 14:43 35.042584 -120.309548 59 9517ft 152kts
13-Jun-17 14:44 35.050371 -120.251297 105 9772ft 191kts
13-Jun-17 14:45 35.038079 -120.185154 86 9480ft 215kts
13-Jun-17 14:46 35.045486 -120.114610 74 9515ft 211kts
13-Jun-17 14:47 35.056135 -120.043520 73 9466ft 212kts
13-Jun-17 14:48 35.073672 -119.975443 67 9493ft 210kts
13-Jun-17 14:49 35.092630 -119.907110 71 9418ft 212kts
13-Jun-17 14:50 35.110884 -119.848946 65 9390ft 212kts
13-Jun-17 14:51 35.135574 -119.784239 62 9393ft 210kts
13-Jun-17 14:52 35.162856 -119.721259 59 9347ft 212kts
13-Jun-17 14:53 35.188601 -119.659454 61 9534ft 211kts
13-Jun-17 14:54 35.212762 -119.594478 61 9786ft 199kts
13-Jun-17 14:55 35.237235 -119.528354 61 9462ft 214kts
13-Jun-17 14:56 35.261141 -119.461755 63 9507ft 209kts
13-Jun-17 14:57 35.285392 -119.397664 62 9635ft 209kts
13-Jun-17 14:58 35.310372 -119.335438 58 9650ft 212kts
13-Jun-17 14:59 35.338932 -119.271464 58 9529ft 213kts
13-Jun-17 15:00 35.365673 -119.206693 60 9547ft 210kts
13-Jun-17 15:01 35.386543 -119.154076 52 8247ft 154kts
13-Jun-17 15:02 35.366214 -119.120270 204 6030ft 133kts
13-Jun-17 15:03 35.370538 -119.149777 347 3911ft 119kts
13-Jun-17 15:04 35.396097 -119.140250 272 2146ft 129kts
13-Jun-17 15:05 35.372251 -119.128023 121 1875ft 116kts
13-Jun-17 15:06 35.386498 -119.095408 48 1781ft 110kts
13-Jun-17 15:07 35.398424 -119.059240 77 1681ft 112kts
13-Jun-17 15:08 35.405741 -119.029681 32 1409ft 83kts
13-Jun-17 15:09 35.423086 -119.043042 308 736ft 75kts
13-Jun-17 15:10 35.436625 -119.059552 316 509ft 34kts
13-Jun-17 15:11 35.438166 -119.060042 36 509ft 0kts
13-Jun-17 15:12 35.437828 -119.058808 132 509ft 13kts
13-Jun-17 15:13 35.436195 -119.055145 273 509ft 10kts
13-Jun-17 15:14 35.435597 -119.053536 153 509ft 0kts
13-Jun-17 15:15 35.435597 -119.053536 153 509ft 0kts
13-Jun-17 15:16 35.435597 -119.053536 153 509ft 0kts
13-Jun-17 15:17 35.435597 -119.053536 152 509ft 0kts
13-Jun-17 15:18 35.435597 -119.053536 152 509ft 0kts
13-Jun-17 15:19 35.435597 -119.053536 152 509ft 0kts
13-Jun-17 15:20 35.435597 -119.053536 152 509ft 0kts
13-Jun-17 15:21 35.435597 -119.053536 152 509ft 0kts
13-Jun-17 15:22 35.435597 -119.053536 152 509ft 0kts
13-Jun-17 15:23 35.435597 -119.053536 152 509ft 0kts
13-Jun-17 15:24 35.435597 -119.053536 152 509ft 0kts

Navigation Log

Ident Type
1. KSMX Airport
2. KBFL Airport